Gouverneur, New York
Current Conditions -  °F | °C
As of 7:28 AM on Thursday 23 Oct 2014 (Local Time) from KGTB Reporting Station
Broken Clouds Broken Clouds  
Wind Chill: 35°   Ceiling: 2600
Heat Index: 41°   Visibility: 10mi
Dew Point: 32°   Wind: 9mph
Humidity: 70%   Direction: 10°N
Pressure: 30.03"   Gusts: NA
Location:  44.34°N, 75.46°W
Report Text: KGTB 231128Z AUTO 01008KT 10SM BKN026 BKN038 05/00 A3003 RMK AO2 CIG 026V039 BKN026 V SCT
Loading
Personal Weather Stations






























Interactive Weather Map
Tropical Storm Tracking
New forecast layout! Learn more

10-Day Weather Forecast

Advertisements
Track Severe Weather on mobile